Eden Prairie, MN (55344)

6:29 PM CDT on July 25, 2017 (GMT -0500)
| | Change Station
Active Advisory: Severe Thunderstorm Watch

Elev -9999 ft 0.00 °N, 0.00 °E | Updated

Thunderstorm
Thunderstorm
°F
Feels Like °F
N
Wind Variable Wind from North
Gusts mph

Today
High -- | Low -- °F
--% Chance of Precip.
Yesterday
High -- | Low -- °F
Precip. -- in
Pressure 29.91 in
Visibility 10.0 miles
Clouds Overcast 3500 ft
Dew Point Not available.
Humidity Not available.
Rainfall --
Snow Depth Not available.
5:52 AM 8:47 PM
Waxing Crescent, 9% visible
METAR KFCM 252253Z 17006KT 10SM TS OVC035 29/22 A2992 RMK AO2 LTG DSNT W TSB48 SLP126 T02890222
Pressure 29.91 in
Visibility 10.0 miles
Clouds Overcast 3500 ft
Dew Point Not available.
Humidity Not available.
Rainfall --
Snow Depth Not available.
5:52 AM 8:47 PM
Waxing Crescent, 9% visible
METAR KFCM 252253Z 17006KT 10SM TS OVC035 29/22 A2992 RMK AO2 LTG DSNT W TSB48 SLP126 T02890222

Get Your Daily Forecast Email!

Thanks for signing up!

Be on the lookout for a verification email in your inbox.

You'll start receiving severe weather alerts in your inbox..

×

10-Day Weather Forecast

Almanac

Astronomy

Jul. 25, 2017 Rise Set
Actual Time
Civil Twilight
Nautical Twilight
Astronomical Twilight
Moon
Length of Visible Light
Length of Day
Tomorrow will be .
, % of the Moon is Illuminated

Today's Extremes

State Highs State Lows

Community

WunderPhotos

Category 6

Welcome to Category 6. This is the collective home for Weather Underground's featured writeups by Dr. Jeff Masters (right), Bob Henson (left), Chris Burt, and other regular contributors.

Nearby

Air Quality

  Air Quality AQ Index Pollutant
Not available.

Snow Depth

Station Depth Elevation

Earthquake Activity

City Distance Mag. Time & Date
Minimum magnitude displayed is 2.5.

Coastal Water Temperatures

Place Temperature

Stations

Nearby Weather Stations

Station Location Temp. Windchill Dew Point Humidity Wind Precip. Elev Updated Type
                   

Watches & Warnings

Severe Thunderstorm Watch
Issued: 6:24 PM CDT Jul. 25, 2017 – National Weather Service

Severe Thunderstorm Watch 437 remains in effect until 1100 PM CDT
for the following locations


MN
. Minnesota counties included are

Anoka Blue Earth Brown
Carver Chippewa Cottonwood
Dakota Hennepin Kandiyohi
Lac Qui Parle Le Sueur Lincoln
Lyon McLeod Meeker
Murray Nicollet Pipestone
Ramsey Redwood Renville
Rice Scott Sibley
swift Waseca Washington
Watonwan Wright Yellow Medicine